Hoyt, Kansas
Current Conditions -  °F | °C
As of 11:53 AM on Thursday 27 Nov 2014 (Local Time) from KTOP Reporting Station
Clear Clear  
Wind Chill: 33°   Ceiling: Unl
Heat Index: 33°   Visibility: 10mi
Dew Point: 21°   Wind: 0mph
Humidity: 61%   Direction: NA
Pressure: 30.51"   Gusts: NA
Location:  39.25°N, 95.71°W
Report Text: KTOP 271753Z 00000KT 10SM CLR 01/M06 A3051 RMK AO2 SLP339 T00061061 10006 21039 58012
Loading
Personal Weather Stations






























Interactive Weather Map New forecast layout! Learn more

10-Day Weather Forecast

Advertisements
Track Severe Weather on mobile